Time;durP1;ratioP1;P1;durP2;ratioP2;P2;SDS_P1;SDS_P2;PMS_P1;PMS_P2;Temp;Humidity;BMP_temperature;BMP_pressure;BME280_temperature;BME280_humidity;BME280_pressure;Samples;Min_cycle;Max_cycle;Signal;HPM_P1;HPM_P2
2024/01/07 00:02:10;;;;;;;8.70;3.55;;;-0.50;99.90;;;;;;6259616;23;20217;-84
2024/01/07 00:04:37;;;;;;;5.18;4.13;;;-0.50;99.90;;;;;;6260376;23;20257;-84
2024/01/07 00:07:05;;;;;;;6.72;3.85;;;-0.50;99.90;;;;;;6259450;22;20194;-84
2024/01/07 00:09:32;;;;;;;4.60;2.80;;;-0.60;99.90;;;;;;6267550;23;20178;-83
2024/01/07 00:11:58;;;;;;;5.15;3.60;;;-0.60;99.90;;;;;;6271603;23;20178;-83
2024/01/07 00:14:25;;;;;;;4.80;3.42;;;-0.50;1.00;;;;;;6272111;23;20166;-84
2024/01/07 00:16:52;;;;;;;5.82;3.33;;;-0.50;99.90;;;;;;6273319;22;20210;-83
2024/01/07 00:19:20;;;;;;;4.63;4.20;;;-0.50;99.90;;;;;;6265125;22;20209;-83
2024/01/07 00:21:47;;;;;;;3.30;2.63;;;-0.50;99.90;;;;;;6263289;23;20184;-83
2024/01/07 00:24:14;;;;;;;4.28;3.42;;;-0.60;99.90;;;;;;6265495;22;20178;-84
2024/01/07 00:26:41;;;;;;;4.82;3.50;;;-0.60;99.90;;;;;;6263683;23;20202;-82
2024/01/07 00:29:07;;;;;;;4.25;3.22;;;-0.60;99.90;;;;;;6262949;22;20543;-84
2024/01/07 00:31:34;;;;;;;3.08;2.80;;;-0.60;99.90;;;;;;6259867;23;20179;-83
2024/01/07 00:34:01;;;;;;;4.00;3.10;;;-0.60;99.90;;;;;;6259072;23;20190;-84
2024/01/07 00:36:29;;;;;;;4.00;3.40;;;-0.60;99.90;;;;;;6265579;23;20221;-83
2024/01/07 00:38:56;;;;;;;3.83;3.50;;;-0.50;99.90;;;;;;6268809;22;20517;-84
2024/01/07 00:41:24;;;;;;;4.35;3.58;;;-0.50;99.90;;;;;;6268512;23;20197;-84
2024/01/07 00:43:51;;;;;;;3.65;3.35;;;-0.60;99.90;;;;;;6269444;23;20186;-83
2024/01/07 00:46:18;;;;;;;4.60;3.58;;;-0.60;99.90;;;;;;6267241;22;20174;-83
2024/01/07 00:48:44;;;;;;;3.20;2.90;;;-0.60;99.90;;;;;;6265149;23;20209;-83
2024/01/07 00:51:10;;;;;;;4.30;3.33;;;-0.70;99.90;;;;;;6261480;23;20189;-83
2024/01/07 00:53:38;;;;;;;5.67;4.07;;;-0.70;99.90;;;;;;6261569;22;20174;-83
2024/01/07 00:56:07;;;;;;;3.17;2.83;;;-0.70;99.90;;;;;;6261720;22;20436;-84
2024/01/07 00:58:34;;;;;;;5.65;3.42;;;-0.70;99.90;;;;;;6260462;22;20204;-83
2024/01/07 01:01:01;;;;;;;5.40;3.10;;;-0.70;99.90;;;;;;6259581;22;20210;-84
2024/01/07 01:03:28;;;;;;;4.60;2.63;;;-0.70;99.90;;;;;;6257866;23;20178;-84
2024/01/07 01:05:54;;;;;;;2.80;2.60;;;-0.80;99.90;;;;;;6257339;23;20194;-84
2024/01/07 01:08:21;;;;;;;4.38;3.20;;;-0.80;99.90;;;;;;6256972;22;20221;-84
2024/01/07 01:10:49;;;;;;;7.78;3.50;;;-0.80;99.90;;;;;;6258225;23;20186;-85
2024/01/07 01:13:16;;;;;;;8.95;5.35;;;-0.90;79.30;;;;;;6257206;23;20185;-84
2024/01/07 01:15:43;;;;;;;3.15;2.85;;;-0.90;54.10;;;;;;6258010;23;20276;-84
2024/01/07 01:18:10;;;;;;;7.50;2.70;;;-0.90;42.80;;;;;;6258778;23;20529;-85
2024/01/07 01:20:37;;;;;;;2.67;2.47;;;-0.90;33.10;;;;;;6259066;22;20179;-85
2024/01/07 01:23:09;;;;;;;2.13;1.90;;;-0.80;99.90;;;;;;6266956;22;20230;-85
2024/01/07 01:25:37;;;;;;;2.47;2.25;;;-0.90;1.00;;;;;;6274336;22;20161;-83
2024/01/07 01:28:05;;;;;;;3.85;3.47;;;-0.90;9.50;;;;;;6258873;22;20202;-84
2024/01/07 01:30:32;;;;;;;2.60;2.40;;;-1.00;1.00;;;;;;6255722;22;20182;-85
2024/01/07 01:32:59;;;;;;;2.53;2.15;;;-0.90;12.30;;;;;;6264159;22;20178;-84
2024/01/07 01:35:26;;;;;;;6.15;3.08;;;-0.90;1.00;;;;;;6266936;23;20174;-85
2024/01/07 01:37:54;;;;;;;4.15;2.53;;;-1.00;5.90;;;;;;6264975;22;20218;-85
2024/01/07 01:40:21;;;;;;;3.20;1.98;;;-1.00;1.00;;;;;;6262891;23;20178;-84
2024/01/07 01:42:48;;;;;;;2.03;1.80;;;-1.10;1.00;;;;;;6261866;23;20185;-84
2024/01/07 01:45:16;;;;;;;4.15;2.97;;;-1.10;1.00;;;;;;6258003;23;20179;-85
2024/01/07 01:47:44;;;;;;;3.30;2.45;;;-1.10;1.00;;;;;;6257848;22;20194;-84
2024/01/07 01:50:12;;;;;;;3.08;2.60;;;-1.10;1.00;;;;;;6258355;23;20185;-85
2024/01/07 01:52:40;;;;;;;3.38;2.33;;;-1.20;1.00;;;;;;6257648;23;20201;-84
2024/01/07 01:55:07;;;;;;;2.20;1.95;;;-1.10;1.00;;;;;;6257643;22;20198;-85
2024/01/07 01:57:35;;;;;;;2.47;2.28;;;-1.20;1.00;;;;;;6258000;23;20225;-85
2024/01/07 02:00:04;;;;;;;2.22;2.03;;;-1.20;1.00;;;;;;6258984;22;20178;-85
2024/01/07 02:02:35;;;;;;;2.63;2.42;;;-1.20;1.00;;;;;;6253379;22;20198;-85
2024/01/07 02:05:02;;;;;;;3.05;2.35;;;-1.20;1.00;;;;;;6255670;23;20167;-84
2024/01/07 02:07:30;;;;;;;4.95;2.28;;;-1.30;1.00;;;;;;6258095;22;20538;-86
2024/01/07 02:09:57;;;;;;;4.60;2.88;;;-1.20;21.00;;;;;;6257962;22;20201;-84
2024/01/07 02:12:24;;;;;;;2.92;2.67;;;-1.30;1.00;;;;;;6254457;23;20201;-84
2024/01/07 02:14:51;;;;;;;4.82;3.10;;;-1.20;1.00;;;;;;6252158;23;20181;-85
2024/01/07 02:17:20;;;;;;;3.00;2.80;;;-1.30;1.00;;;;;;6254713;23;20236;-84
2024/01/07 02:19:49;;;;;;;3.53;2.72;;;-1.30;1.00;;;;;;6261919;22;20182;-82
2024/01/07 02:22:15;;;;;;;2.90;2.70;;;-1.30;1.00;;;;;;6272740;22;20186;-82
2024/01/07 02:24:44;;;;;;;4.15;2.65;;;-1.40;1.00;;;;;;6274110;22;20178;-83
2024/01/07 02:27:11;;;;;;;2.45;2.25;;;-1.40;1.00;;;;;;6274206;22;20194;-83
2024/01/07 02:29:38;;;;;;;3.05;2.75;;;-1.40;1.00;;;;;;6274344;22;20175;-83
2024/01/07 02:32:05;;;;;;;5.78;2.42;;;-1.30;1.00;;;;;;6274464;22;20161;-84
2024/01/07 02:34:32;;;;;;;2.90;2.70;;;-1.40;1.00;;;;;;6271346;22;20178;-84
2024/01/07 02:36:59;;;;;;;3.13;2.42;;;-1.40;1.00;;;;;;6266542;23;20202;-85
2024/01/07 02:39:27;;;;;;;3.17;2.88;;;-1.50;1.00;;;;;;6261996;23;20178;-85
2024/01/07 02:41:55;;;;;;;7.82;2.95;;;-1.60;1.00;;;;;;6262941;23;20209;-85
2024/01/07 02:44:22;;;;;;;3.53;2.22;;;-1.60;1.00;;;;;;6264643;22;20212;-85
2024/01/07 02:46:49;;;;;;;3.30;2.65;;;-1.60;1.00;;;;;;6264420;23;20198;-84
2024/01/07 02:49:16;;;;;;;3.05;2.38;;;-1.60;1.00;;;;;;6261582;23;20178;-85
2024/01/07 02:51:45;;;;;;;2.90;2.70;;;-1.70;1.00;;;;;;6260405;22;20581;-84
2024/01/07 02:54:12;;;;;;;3.15;2.70;;;-1.70;1.00;;;;;;6259665;22;20224;-84
2024/01/07 02:56:38;;;;;;;2.00;1.90;;;-1.70;1.00;;;;;;6257481;22;20205;-83
2024/01/07 02:59:07;;;;;;;2.45;1.95;;;-1.80;1.00;;;;;;6259212;23;20213;-84
2024/01/07 03:01:39;;;;;;;2.97;2.72;;;-1.80;1.00;;;;;;6263826;22;20249;-84
2024/01/07 03:04:06;;;;;;;2.38;2.17;;;-1.80;1.00;;;;;;6263295;23;20169;-85
2024/01/07 03:06:33;;;;;;;2.08;1.98;;;-1.80;1.00;;;;;;6264515;23;20174;-85
2024/01/07 03:09:00;;;;;;;2.35;2.15;;;-1.90;1.00;;;;;;6257088;23;20552;-86
2024/01/07 03:11:27;;;;;;;2.60;2.38;;;-1.80;1.00;;;;;;6256502;23;20178;-86
2024/01/07 03:13:55;;;;;;;2.90;2.53;;;-1.90;1.00;;;;;;6266728;23;20185;-86
2024/01/07 03:16:24;;;;;;;2.30;2.20;;;-1.90;1.00;;;;;;6259883;22;20687;-85
2024/01/07 03:18:50;;;;;;;2.30;2.10;;;-1.90;1.00;;;;;;6255601;22;20205;-85
2024/01/07 03:21:18;;;;;;;2.83;2.53;;;-2.00;1.00;;;;;;6254592;22;20170;-85
2024/01/07 03:23:45;;;;;;;3.00;2.72;;;-2.00;1.00;;;;;;6260195;22;20895;-84
2024/01/07 03:26:17;;;;;;;3.42;2.67;;;-2.00;6.80;;;;;;6271400;23;20178;-85
2024/01/07 03:28:44;;;;;;;5.38;2.40;;;-2.00;1.00;;;;;;6271617;23;20194;-85
2024/01/07 03:31:13;;;;;;;2.35;2.15;;;-2.10;1.00;;;;;;6272304;22;20171;-85
2024/01/07 03:33:42;;;;;;;3.17;2.40;;;-2.10;1.00;;;;;;6273293;22;20169;-85
2024/01/07 03:36:10;;;;;;;3.20;2.90;;;-2.10;1.00;;;;;;6273040;23;20241;-85
2024/01/07 03:38:37;;;;;;;2.13;2.03;;;-2.10;1.00;;;;;;6272567;22;20185;-84
2024/01/07 03:41:04;;;;;;;3.78;2.75;;;-2.00;1.00;;;;;;6273439;22;20170;-85
2024/01/07 03:43:31;;;;;;;3.45;2.30;;;-2.10;1.00;;;;;;6262373;22;20586;-85
2024/01/07 03:45:59;;;;;;;3.42;3.10;;;-2.10;1.00;;;;;;6257989;22;20174;-86
2024/01/07 03:48:26;;;;;;;3.55;2.70;;;-2.10;1.00;;;;;;6259351;22;20194;-85
2024/01/07 03:50:54;;;;;;;2.95;2.40;;;-2.10;1.00;;;;;;6254302;23;20182;-85
2024/01/07 03:53:21;;;;;;;2.38;2.20;;;-2.10;1.00;;;;;;6267951;22;20507;-84
2024/01/07 03:55:48;;;;;;;2.50;2.30;;;-2.10;1.00;;;;;;6258022;22;20660;-84
2024/01/07 03:58:17;;;;;;;2.83;2.70;;;-2.10;1.00;;;;;;6255484;23;20258;-85
2024/01/07 04:00:45;;;;;;;2.50;2.30;;;-2.10;1.00;;;;;;6255238;23;20662;-85
2024/01/07 04:03:12;;;;;;;3.08;2.78;;;-2.10;1.00;;;;;;6255245;22;20179;-86
2024/01/07 04:05:39;;;;;;;3.35;3.05;;;-2.20;1.00;;;;;;6253109;22;20253;-85
2024/01/07 04:08:10;;;;;;;4.65;2.00;;;-2.20;1.00;;;;;;6252287;23;20198;-86
2024/01/07 04:10:38;;;;;;;2.55;2.35;;;-2.20;1.00;;;;;;6256844;23;20236;-86
2024/01/07 04:13:05;;;;;;;2.60;2.50;;;-2.20;1.00;;;;;;6259528;23;20178;-86
2024/01/07 04:15:32;;;;;;;2.58;2.35;;;-2.20;1.00;;;;;;6265287;23;20178;-85
2024/01/07 04:18:02;;;;;;;2.60;2.35;;;-2.20;1.00;;;;;;6261245;22;20198;-85
2024/01/07 04:20:29;;;;;;;3.80;2.42;;;-2.20;1.00;;;;;;6260223;22;20178;-87
2024/01/07 04:22:55;;;;;;;2.53;2.28;;;-2.20;1.00;;;;;;6259302;22;20235;-85
2024/01/07 04:25:24;;;;;;;3.17;2.38;;;-2.20;1.00;;;;;;6274345;22;20167;-84
2024/01/07 04:27:51;;;;;;;2.33;1.90;;;-2.20;1.00;;;;;;6273363;22;20190;-84
2024/01/07 04:30:17;;;;;;;2.10;1.88;;;-2.20;1.00;;;;;;6260286;22;20244;-86
2024/01/07 04:32:44;;;;;;;2.35;2.20;;;-2.20;1.00;;;;;;6258911;22;20244;-85
2024/01/07 04:35:11;;;;;;;2.45;2.03;;;-2.20;1.00;;;;;;6252075;23;20234;-86
2024/01/07 04:37:38;;;;;;;1.63;1.52;;;-2.20;1.00;;;;;;6252188;23;20679;-86
2024/01/07 04:40:06;;;;;;;3.25;2.50;;;-2.20;1.00;;;;;;6252109;22;20280;-85
2024/01/07 04:42:35;;;;;;;3.22;2.10;;;-2.20;1.00;;;;;;6253811;23;20186;-86
2024/01/07 04:45:02;;;;;;;2.35;1.85;;;-2.20;1.00;;;;;;6252392;22;20176;-86
2024/01/07 04:47:30;;;;;;;2.00;1.80;;;-2.20;1.00;;;;;;6255968;22;20213;-84
2024/01/07 04:49:57;;;;;;;2.90;2.35;;;-2.20;1.00;;;;;;6268384;22;20209;-84
2024/01/07 04:52:25;;;;;;;2.60;2.40;;;-2.20;1.00;;;;;;6263160;22;20178;-86
2024/01/07 04:54:52;;;;;;;2.15;2.05;;;-2.20;1.00;;;;;;6262242;22;20202;-85
2024/01/07 04:57:19;;;;;;;2.75;2.50;;;-2.20;1.00;;;;;;6260597;23;20203;-84
2024/01/07 04:59:48;;;;;;;2.97;2.78;;;-2.30;1.00;;;;;;6254080;22;20198;-85
2024/01/07 05:02:15;;;;;;;2.15;2.05;;;-2.30;1.00;;;;;;6254411;23;20285;-85
2024/01/07 05:04:43;;;;;;;5.63;2.50;;;-2.30;1.00;;;;;;6268684;22;20170;-85
2024/01/07 05:07:10;;;;;;;2.60;2.40;;;-2.30;1.00;;;;;;6269756;22;20661;-85
2024/01/07 05:09:37;;;;;;;3.15;2.85;;;-2.30;1.00;;;;;;6260512;23;20178;-86
2024/01/07 05:12:04;;;;;;;3.30;2.75;;;-2.30;1.00;;;;;;6255146;23;20307;-86
2024/01/07 05:14:31;;;;;;;3.33;2.67;;;-2.30;1.00;;;;;;6259927;23;20178;-86
2024/01/07 05:17:00;;;;;;;3.17;2.08;;;-2.30;1.00;;;;;;6269016;22;20203;-85
2024/01/07 05:19:26;;;;;;;2.20;2.05;;;-2.30;1.00;;;;;;6271457;22;20178;-85
2024/01/07 05:21:54;;;;;;;3.03;2.72;;;-2.30;1.00;;;;;;6274646;22;20174;-84
2024/01/07 05:24:21;;;;;;;2.67;2.42;;;-2.30;1.00;;;;;;6275081;22;20159;-85
2024/01/07 05:26:48;;;;;;;2.22;2.00;;;-2.40;1.00;;;;;;6274612;22;20193;-84
2024/01/07 05:29:15;;;;;;;1.80;1.70;;;-2.40;1.00;;;;;;6274860;22;20166;-84
2024/01/07 05:31:43;;;;;;;2.58;2.15;;;-2.30;1.00;;;;;;6274881;22;20162;-84
2024/01/07 05:34:12;;;;;;;2.90;2.67;;;-2.40;1.00;;;;;;6274905;22;20158;-84
2024/01/07 05:36:38;;;;;;;3.72;3.53;;;-2.40;1.00;;;;;;6271301;22;20167;-84
2024/01/07 05:39:06;;;;;;;2.80;2.60;;;-2.40;1.00;;;;;;6264402;22;20290;-85
2024/01/07 05:41:33;;;;;;;3.15;2.75;;;-2.40;1.00;;;;;;6258032;22;20213;-85
2024/01/07 05:44:00;;;;;;;5.45;2.70;;;-2.40;1.00;;;;;;6265673;22;20155;-83
2024/01/07 05:46:27;;;;;;;3.63;2.45;;;-2.40;1.00;;;;;;6274386;22;20159;-84
2024/01/07 05:48:54;;;;;;;4.57;2.63;;;-2.40;1.00;;;;;;6274324;22;20205;-85
2024/01/07 05:51:22;;;;;;;3.60;2.17;;;-2.40;1.00;;;;;;6266169;22;20201;-87
2024/01/07 05:53:52;;;;;;;3.03;2.83;;;-2.40;1.00;;;;;;6262356;22;20178;-86
2024/01/07 05:56:19;;;;;;;3.10;2.85;;;-2.40;1.00;;;;;;6261767;23;20178;-85
2024/01/07 05:58:46;;;;;;;2.25;2.05;;;-2.40;1.00;;;;;;6259672;22;20225;-86
2024/01/07 06:01:19;;;;;;;4.35;2.90;;;-2.40;1.00;;;;;;6259139;22;20185;-84
2024/01/07 06:03:46;;;;;;;3.15;2.95;;;-2.40;1.00;;;;;;6258771;23;20159;-85
2024/01/07 06:06:14;;;;;;;3.33;2.95;;;-2.40;1.00;;;;;;6260618;22;20170;-85
2024/01/07 06:08:42;;;;;;;2.80;2.60;;;-2.40;1.00;;;;;;6260494;23;20195;-86
2024/01/07 06:11:10;;;;;;;3.33;3.05;;;-2.40;1.00;;;;;;6256277;23;20178;-85
2024/01/07 06:13:37;;;;;;;2.55;2.35;;;-2.30;1.00;;;;;;6255816;22;20179;-85
2024/01/07 06:16:05;;;;;;;3.45;3.13;;;-2.30;1.00;;;;;;6254912;23;20185;-85
2024/01/07 06:18:32;;;;;;;2.45;2.35;;;-2.30;1.00;;;;;;6259817;22;20187;-86
2024/01/07 06:20:58;;;;;;;3.60;2.80;;;-2.30;1.00;;;;;;6274241;22;20166;-84
2024/01/07 06:23:25;;;;;;;3.15;2.85;;;-2.30;1.00;;;;;;6273822;22;20181;-84
2024/01/07 06:25:54;;;;;;;4.07;2.60;;;-2.20;1.00;;;;;;6268666;22;20181;-85
2024/01/07 06:28:21;;;;;;;3.28;3.08;;;-2.20;1.00;;;;;;6259641;22;20289;-85
2024/01/07 06:30:47;;;;;;;2.70;2.50;;;-2.30;1.00;;;;;;6256213;22;20177;-86
2024/01/07 06:33:14;;;;;;;5.03;3.20;;;-2.20;1.00;;;;;;6256971;22;20559;-86
2024/01/07 06:35:41;;;;;;;3.70;3.40;;;-2.20;1.00;;;;;;6272628;22;20158;-84
2024/01/07 06:38:08;;;;;;;3.80;3.08;;;-2.10;1.00;;;;;;6269955;22;20497;-85
2024/01/07 06:40:35;;;;;;;3.80;3.05;;;-2.20;1.00;;;;;;6257404;22;20178;-86
2024/01/07 06:43:03;;;;;;;3.30;3.00;;;-2.10;1.00;;;;;;6257078;22;20211;-85
2024/01/07 06:45:30;;;;;;;3.00;2.67;;;-2.10;1.00;;;;;;6255871;23;20174;-86
2024/01/07 06:47:57;;;;;;;3.90;3.13;;;-2.10;1.00;;;;;;6255596;23;20532;-86
2024/01/07 06:50:24;;;;;;;2.50;2.40;;;-2.20;1.00;;;;;;6251615;23;20182;-86
2024/01/07 06:52:51;;;;;;;2.70;2.50;;;-2.20;1.00;;;;;;6261075;23;20178;-86
2024/01/07 06:55:18;;;;;;;2.60;2.40;;;-2.20;1.00;;;;;;6270208;23;20178;-85
2024/01/07 06:57:45;;;;;;;3.70;2.80;;;-2.20;1.00;;;;;;6255183;22;20198;-85
2024/01/07 07:00:15;;;;;;;3.75;3.15;;;-2.20;1.00;;;;;;6253995;22;20514;-85
2024/01/07 07:02:42;;;;;;;3.70;3.10;;;-2.10;1.00;;;;;;6254483;23;20565;-87
2024/01/07 07:05:09;;;;;;;7.07;3.40;;;-2.10;1.00;;;;;;6253976;22;20175;-86
2024/01/07 07:07:36;;;;;;;5.38;2.85;;;-2.10;1.00;;;;;;6253304;23;20190;-86
2024/01/07 07:10:03;;;;;;;3.28;2.55;;;-2.10;1.00;;;;;;6253372;22;20178;-86
2024/01/07 07:12:30;;;;;;;3.13;2.80;;;-2.10;1.00;;;;;;6255573;22;20185;-87
2024/01/07 07:14:57;;;;;;;3.20;2.90;;;-2.00;1.00;;;;;;6252859;23;20249;-87
2024/01/07 07:17:26;;;;;;;3.00;2.75;;;-2.00;1.00;;;;;;6252079;23;20280;-86
2024/01/07 07:19:52;;;;;;;3.80;3.50;;;-2.00;1.00;;;;;;6253094;22;20550;-87
2024/01/07 07:22:19;;;;;;;5.22;2.80;;;-2.00;1.00;;;;;;6252704;22;20567;-87
2024/01/07 07:24:46;;;;;;;2.90;2.70;;;-2.00;1.00;;;;;;6251181;22;20179;-87
2024/01/07 07:27:13;;;;;;;6.68;3.10;;;-1.90;1.00;;;;;;6254142;22;20281;-86
2024/01/07 07:29:40;;;;;;;5.55;3.85;;;-1.90;1.00;;;;;;6256708;23;20230;-85
2024/01/07 07:32:08;;;;;;;3.63;3.33;;;-1.90;1.00;;;;;;6238162;23;20179;-85
2024/01/07 07:34:36;;;;;;;3.42;3.22;;;-1.80;1.00;;;;;;6262241;22;20258;-87
2024/01/07 07:37:04;;;;;;;5.03;3.70;;;-1.80;1.00;;;;;;6265533;22;20198;-85
2024/01/07 07:39:30;;;;;;;3.35;3.05;;;-1.90;1.00;;;;;;6265318;23;20222;-86
2024/01/07 07:41:57;;;;;;;3.25;2.95;;;-1.80;1.00;;;;;;6266266;22;20182;-85
2024/01/07 07:44:24;;;;;;;2.80;2.30;;;-1.80;1.00;;;;;;6262194;22;20186;-86
2024/01/07 07:46:51;;;;;;;3.40;3.05;;;-1.80;1.00;;;;;;6269580;22;20177;-85
2024/01/07 07:49:18;;;;;;;2.35;2.15;;;-1.80;1.00;;;;;;6261774;22;20628;-86
2024/01/07 07:51:46;;;;;;;3.00;2.70;;;-1.70;1.00;;;;;;6257445;22;20190;-86
2024/01/07 07:54:13;;;;;;;3.08;2.83;;;-1.80;1.00;;;;;;6255567;23;20680;-85
2024/01/07 07:56:40;;;;;;;2.75;2.55;;;-1.70;1.00;;;;;;6255391;22;20209;-86
2024/01/07 07:59:08;;;;;;;2.88;2.00;;;-1.60;1.00;;;;;;6255357;23;20203;-87
2024/01/07 08:01:35;;;;;;;2.53;2.33;;;-1.70;1.00;;;;;;6252421;22;20177;-86
2024/01/07 08:04:04;;;;;;;4.20;3.00;;;-1.70;1.00;;;;;;6260731;23;20591;-87
2024/01/07 08:06:39;;;;;;;3.15;2.78;;;-1.60;1.00;;;;;;6253805;23;20648;-86
2024/01/07 08:09:08;;;;;;;2.53;2.33;;;-1.60;1.00;;;;;;6256174;23;20484;-85
2024/01/07 08:11:35;;;;;;;3.15;2.85;;;-1.50;1.00;;;;;;6252689;22;20178;-86
2024/01/07 08:14:05;;;;;;;4.10;3.00;;;-1.60;1.00;;;;;;6252938;22;20575;-86
2024/01/07 08:16:32;;;;;;;3.08;2.67;;;-1.60;1.00;;;;;;6271420;22;20166;-84
2024/01/07 08:18:59;;;;;;;3.38;3.08;;;-1.50;1.00;;;;;;6274509;22;20205;-85
2024/01/07 08:21:27;;;;;;;5.30;3.38;;;-1.50;1.00;;;;;;6268769;23;20174;-85
2024/01/07 08:23:54;;;;;;;2.88;2.63;;;-1.50;1.00;;;;;;6252795;23;20185;-85
2024/01/07 08:26:22;;;;;;;3.58;3.03;;;-1.40;1.00;;;;;;6262843;22;20173;-85
2024/01/07 08:28:49;;;;;;;10.63;7.57;;;-1.50;1.00;;;;;;6274660;22;20174;-83
2024/01/07 08:31:16;;;;;;;5.07;3.50;;;-1.50;1.00;;;;;;6275260;22;20163;-84
2024/01/07 08:33:43;;;;;;;3.00;2.80;;;-1.40;1.00;;;;;;6275514;22;20169;-85
2024/01/07 08:36:21;;;;;;;6.05;3.60;;;-1.40;1.00;;;;;;6274979;22;20170;-85
2024/01/07 08:38:48;;;;;;;4.85;3.00;;;-1.50;1.00;;;;;;6274476;23;20196;-86
2024/01/07 08:41:16;;;;;;;3.08;2.83;;;-1.40;1.00;;;;;;6275065;22;20170;-85
2024/01/07 08:43:45;;;;;;;4.75;3.05;;;-1.40;1.00;;;;;;6275058;22;20185;-85
2024/01/07 08:46:13;;;;;;;4.07;2.70;;;-1.40;1.00;;;;;;6275433;22;20166;-84
2024/01/07 08:48:40;;;;;;;6.03;4.07;;;-1.30;1.00;;;;;;6275186;22;20189;-85
2024/01/07 08:51:07;;;;;;;3.33;3.08;;;-1.20;1.00;;;;;;6273346;23;20166;-85
2024/01/07 08:53:34;;;;;;;3.95;3.65;;;-1.00;1.00;;;;;;6269458;22;20185;-86
2024/01/07 08:56:01;;;;;;;3.28;2.92;;;-1.00;1.00;;;;;;6270165;22;20178;-85
2024/01/07 08:58:28;;;;;;;3.55;2.90;;;-0.90;1.00;;;;;;6267790;22;20202;-86
2024/01/07 09:00:56;;;;;;;3.20;2.90;;;-1.00;1.00;;;;;;6257200;22;20185;-86
2024/01/07 09:03:23;;;;;;;4.18;3.65;;;-1.00;1.00;;;;;;6268137;22;20179;-85
2024/01/07 09:05:49;;;;;;;4.85;3.40;;;-1.00;1.00;;;;;;6274867;22;20189;-83
2024/01/07 09:08:16;;;;;;;3.55;3.08;;;-0.90;1.00;;;;;;6275155;22;20190;-85
2024/01/07 09:10:43;;;;;;;3.83;3.40;;;-1.00;1.00;;;;;;6268646;22;20181;-86
2024/01/07 09:13:10;;;;;;;3.40;3.10;;;-0.80;1.00;;;;;;6267378;22;20174;-86
2024/01/07 09:15:37;;;;;;;7.90;3.47;;;-0.80;1.00;;;;;;6268784;23;20198;-86
2024/01/07 09:18:06;;;;;;;3.10;2.83;;;-0.90;1.00;;;;;;6264467;23;20202;-86
2024/01/07 09:20:33;;;;;;;4.15;3.72;;;-0.80;1.00;;;;;;6258567;22;20174;-86
2024/01/07 09:23:00;;;;;;;3.97;3.65;;;-0.60;1.00;;;;;;6257281;23;20185;-86
2024/01/07 09:25:27;;;;;;;6.50;4.07;;;-0.60;1.00;;;;;;6254819;22;20178;-86
2024/01/07 09:27:54;;;;;;;3.20;2.90;;;-0.80;1.00;;;;;;6256533;22;20594;-85
2024/01/07 09:30:21;;;;;;;4.47;3.50;;;-0.70;1.00;;;;;;6257766;22;20260;-87
2024/01/07 09:32:47;;;;;;;7.07;4.40;;;-0.70;1.00;;;;;;6260108;22;20178;-86
2024/01/07 09:35:16;;;;;;;3.65;3.35;;;-0.70;1.00;;;;;;6272689;22;20162;-85
2024/01/07 09:37:43;;;;;;;3.97;3.65;;;-0.70;1.00;;;;;;6274500;22;20190;-85
2024/01/07 09:40:11;;;;;;;4.55;3.38;;;-0.60;1.00;;;;;;6271687;22;20213;-86
2024/01/07 09:42:38;;;;;;;4.35;3.80;;;-0.40;1.00;;;;;;6264357;22;20162;-88
2024/01/07 09:45:06;;;;;;;3.63;3.30;;;-0.40;1.00;;;;;;6260516;22;20520;-86
2024/01/07 09:47:33;;;;;;;5.32;4.22;;;-0.30;29.80;;;;;;6267064;22;20199;-84
2024/01/07 09:50:00;;;;;;;5.82;4.15;;;-0.30;72.30;;;;;;6265138;22;20174;-85
2024/01/07 09:52:29;;;;;;;4.28;3.90;;;-0.30;1.00;;;;;;6261502;22;20174;-86
2024/01/07 09:55:00;;;;;;;4.97;4.03;;;-0.50;1.00;;;;;;6259451;23;20269;-86
2024/01/07 09:57:27;;;;;;;6.55;4.25;;;-0.40;1.00;;;;;;6257254;23;20200;-86
2024/01/07 09:59:54;;;;;;;4.85;4.13;;;-0.40;1.00;;;;;;6253576;23;20468;-86
2024/01/07 10:02:22;;;;;;;6.55;5.28;;;-0.40;1.00;;;;;;6254117;23;20174;-87
2024/01/07 10:04:52;;;;;;;6.07;4.95;;;-0.40;1.00;;;;;;6258539;22;20170;-86
2024/01/07 10:07:19;;;;;;;9.35;5.63;;;-0.40;1.00;;;;;;6257998;22;20198;-84
2024/01/07 10:09:47;;;;;;;8.52;5.50;;;0.00;95.70;;;;;;6269976;22;20182;-85
2024/01/07 10:12:14;;;;;;;7.47;5.35;;;-0.40;99.90;;;;;;6270823;22;20209;-84
2024/01/07 10:14:41;;;;;;;5.75;4.30;;;-0.40;1.00;;;;;;6266488;22;20604;-86
2024/01/07 10:17:18;;;;;;;6.20;5.05;;;-0.50;80.30;;;;;;6257044;23;20202;-86
2024/01/07 10:19:46;;;;;;;5.43;4.68;;;-0.50;99.90;;;;;;6256089;23;20190;-86
2024/01/07 10:22:13;;;;;;;6.80;5.25;;;-0.50;99.90;;;;;;6255019;22;20582;-87
2024/01/07 10:24:43;;;;;;;8.07;5.75;;;-0.60;99.90;;;;;;6257680;22;20257;-86
2024/01/07 10:27:12;;;;;;;13.52;6.25;;;-0.60;99.90;;;;;;6258916;22;20220;-84
2024/01/07 10:29:39;;;;;;;6.18;5.57;;;-0.70;89.60;;;;;;6259461;23;20155;-84
2024/01/07 10:32:06;;;;;;;6.60;4.97;;;-0.60;99.90;;;;;;6260282;22;20178;-85
2024/01/07 10:34:34;;;;;;;6.93;5.65;;;-0.70;99.40;;;;;;6263444;22;20178;-84
2024/01/07 10:37:03;;;;;;;5.47;4.35;;;-0.50;99.90;;;;;;6271252;23;20186;-83
2024/01/07 10:39:30;;;;;;;7.00;5.10;;;-0.60;67.10;;;;;;6263629;23;20225;-84
2024/01/07 10:41:58;;;;;;;6.05;5.10;;;-0.50;99.90;;;;;;6258581;23;20178;-83
2024/01/07 10:44:28;;;;;;;6.40;5.78;;;-0.40;99.90;;;;;;6257967;23;20205;-84
2024/01/07 10:46:56;;;;;;;5.70;5.07;;;-0.40;99.90;;;;;;6257453;23;20194;-83
2024/01/07 10:49:25;;;;;;;8.18;5.05;;;-0.40;99.90;;;;;;6257060;22;20186;-85
2024/01/07 10:52:04;;;;;;;5.55;5.00;;;-0.30;99.90;;;;;;6257953;22;20185;-85
2024/01/07 10:54:33;;;;;;;7.57;6.25;;;-0.40;99.90;;;;;;6260143;23;20166;-85
2024/01/07 10:57:01;;;;;;;6.22;4.88;;;-0.40;99.90;;;;;;6259278;23;20194;-85
2024/01/07 10:59:31;;;;;;;6.28;5.65;;;-0.40;99.90;;;;;;6258384;22;20201;-85
2024/01/07 11:01:59;;;;;;;7.95;6.35;;;-0.40;99.90;;;;;;6259440;23;20169;-84
2024/01/07 11:04:34;;;;;;;7.65;5.22;;;-0.30;1.00;;;;;;6259606;22;20185;-84
2024/01/07 11:07:10;;;;;;;6.80;6.03;;;-0.30;99.90;;;;;;6258116;23;20204;-85
2024/01/07 11:09:44;;;;;;;6.68;5.72;;;-0.30;99.90;;;;;;6258572;23;20185;-84
2024/01/07 11:12:12;;;;;;;8.13;5.50;;;-0.30;99.90;;;;;;6265144;23;20208;-85
2024/01/07 11:14:45;;;;;;;6.60;5.82;;;-0.30;99.90;;;;;;6265488;23;20179;-84
2024/01/07 11:17:13;;;;;;;6.15;5.28;;;-0.30;99.90;;;;;;6268304;22;20205;-81
2024/01/07 11:19:50;;;;;;;6.78;5.47;;;-0.30;99.90;;;;;;6264485;22;20195;-86
2024/01/07 11:22:27;;;;;;;6.30;5.68;;;-0.20;99.90;;;;;;6263012;23;20189;-84
2024/01/07 11:24:54;;;;;;;7.18;4.85;;;-0.20;99.90;;;;;;6260039;23;20201;-84
2024/01/07 11:27:23;;;;;;;7.45;5.20;;;-0.20;99.90;;;;;;6264478;23;20202;-84
2024/01/07 11:29:58;;;;;;;6.78;5.30;;;-0.30;99.90;;;;;;6259527;23;20174;-85
2024/01/07 11:32:29;;;;;;;7.53;6.72;;;-0.30;99.90;;;;;;6268778;23;20225;-84
2024/01/07 11:34:59;;;;;;;9.63;6.68;;;-0.30;99.90;;;;;;6273506;22;20158;-83
2024/01/07 11:37:26;;;;;;;5.60;5.00;;;-0.40;99.90;;;;;;6274341;22;20206;-83
2024/01/07 11:39:55;;;;;;;8.60;5.63;;;-0.20;99.90;;;;;;6274954;22;20257;-82
2024/01/07 11:42:23;;;;;;;7.35;5.30;;;-0.20;99.90;;;;;;6275876;22;20165;-83
2024/01/07 11:44:52;;;;;;;8.38;6.05;;;-0.20;99.90;;;;;;6273629;22;20174;-85
2024/01/07 11:47:21;;;;;;;6.53;5.72;;;-0.10;1.00;;;;;;6269266;22;20205;-85
2024/01/07 11:49:49;;;;;;;10.43;6.85;;;0.00;1.00;;;;;;6260137;23;20175;-84
2024/01/07 11:52:16;;;;;;;8.07;5.68;;;0.00;1.00;;;;;;6260462;23;20225;-84
2024/01/07 11:54:43;;;;;;;9.05;5.95;;;0.00;1.00;;;;;;6257055;23;20517;-85
2024/01/07 11:57:11;;;;;;;5.90;5.38;;;0.00;1.00;;;;;;6261773;23;20228;-86
2024/01/07 11:59:38;;;;;;;5.50;4.72;;;0.10;1.00;;;;;;6271717;23;20201;-86
2024/01/07 12:02:05;;;;;;;6.75;5.25;;;0.00;1.00;;;;;;6274043;23;20177;-84
2024/01/07 12:04:34;;;;;;;5.32;4.68;;;-0.10;1.00;;;;;;6263714;22;20178;-85
2024/01/07 12:07:03;;;;;;;6.53;5.53;;;-0.10;1.00;;;;;;6259507;22;20198;-86
2024/01/07 12:09:41;;;;;;;5.93;5.30;;;-0.20;99.90;;;;;;6260199;22;20228;-86
2024/01/07 12:12:09;;;;;;;7.10;5.22;;;0.00;1.00;;;;;;6254261;23;20180;-85
2024/01/07 12:14:36;;;;;;;8.05;4.85;;;0.10;7.70;;;;;;6253226;22;20491;-85
2024/01/07 12:17:03;;;;;;;4.95;4.45;;;0.00;1.00;;;;;;6257176;23;20280;-84
2024/01/07 12:19:29;;;;;;;6.45;5.20;;;0.40;1.00;;;;;;6256811;23;20194;-85
2024/01/07 12:22:04;;;;;;;8.68;5.20;;;0.00;1.00;;;;;;6253268;22;20184;-85
2024/01/07 12:24:32;;;;;;;7.30;5.03;;;0.00;1.00;;;;;;6262606;23;20162;-85
2024/01/07 12:27:05;;;;;;;9.07;6.22;;;0.10;1.00;;;;;;6261140;22;20198;-85
2024/01/07 12:29:32;;;;;;;5.68;4.75;;;0.00;1.00;;;;;;6273117;22;20143;-85
2024/01/07 12:32:00;;;;;;;5.72;4.80;;;0.00;29.90;;;;;;6275057;22;20159;-84
2024/01/07 12:34:27;;;;;;;5.45;4.93;;;0.10;48.70;;;;;;6275393;22;20179;-84
2024/01/07 12:36:54;;;;;;;6.38;5.47;;;0.00;1.00;;;;;;6271152;22;20195;-85
2024/01/07 12:39:22;;;;;;;6.95;4.80;;;0.00;1.00;;;;;;6273629;22;20194;-85
2024/01/07 12:41:49;;;;;;;13.07;11.38;;;0.00;1.00;;;;;;6263146;22;20179;-86
2024/01/07 12:44:17;;;;;;;5.03;4.53;;;0.10;8.30;;;;;;6266542;23;20190;-85
2024/01/07 12:46:44;;;;;;;7.20;5.03;;;0.10;1.00;;;;;;6259424;23;20178;-85
2024/01/07 12:49:11;;;;;;;7.70;4.80;;;0.10;37.40;;;;;;6259000;23;20284;-85
2024/01/07 12:51:38;;;;;;;6.18;5.38;;;0.10;67.50;;;;;;6259053;22;20178;-85
2024/01/07 12:54:05;;;;;;;6.85;4.68;;;0.20;99.90;;;;;;6256660;23;20198;-86
2024/01/07 12:56:33;;;;;;;6.93;5.40;;;0.20;92.40;;;;;;6255687;22;20210;-86
2024/01/07 12:59:00;;;;;;;7.05;5.15;;;0.20;99.90;;;;;;6259544;22;20181;-87